sensor_id;sensor_type;location;lat;lon;timestamp;P1;durP1;ratioP1;P2;durP2;ratioP2
2009;SDS011;1008;47.404;8.502;2023-05-14T00:01:51;9.33;;;6.57;;
2009;SDS011;1008;47.404;8.502;2023-05-14T00:04:18;10.33;;;6.70;;
2009;SDS011;1008;47.404;8.502;2023-05-14T00:06:45;10.90;;;6.80;;
2009;SDS011;1008;47.404;8.502;2023-05-14T00:09:11;9.17;;;6.40;;
2009;SDS011;1008;47.404;8.502;2023-05-14T00:11:38;9.97;;;7.13;;
2009;SDS011;1008;47.404;8.502;2023-05-14T00:14:06;11.20;;;7.27;;
2009;SDS011;1008;47.404;8.502;2023-05-14T00:16:33;11.70;;;7.13;;
2009;SDS011;1008;47.404;8.502;2023-05-14T00:19:00;11.60;;;6.67;;
2009;SDS011;1008;47.404;8.502;2023-05-14T00:21:27;12.00;;;6.93;;
2009;SDS011;1008;47.404;8.502;2023-05-14T00:23:53;9.97;;;7.00;;
2009;SDS011;1008;47.404;8.502;2023-05-14T00:26:20;11.00;;;6.73;;
2009;SDS011;1008;47.404;8.502;2023-05-14T00:28:47;9.67;;;6.90;;
2009;SDS011;1008;47.404;8.502;2023-05-14T00:31:15;8.43;;;6.37;;
2009;SDS011;1008;47.404;8.502;2023-05-14T00:33:42;12.57;;;6.13;;
2009;SDS011;1008;47.404;8.502;2023-05-14T00:36:08;9.37;;;7.00;;
2009;SDS011;1008;47.404;8.502;2023-05-14T00:38:35;10.63;;;6.57;;
2009;SDS011;1008;47.404;8.502;2023-05-14T00:41:02;9.80;;;6.10;;
2009;SDS011;1008;47.404;8.502;2023-05-14T00:43:29;10.03;;;6.93;;
2009;SDS011;1008;47.404;8.502;2023-05-14T00:45:57;8.80;;;6.17;;
2009;SDS011;1008;47.404;8.502;2023-05-14T00:48:25;9.13;;;6.30;;
2009;SDS011;1008;47.404;8.502;2023-05-14T00:50:52;10.40;;;6.10;;
2009;SDS011;1008;47.404;8.502;2023-05-14T00:53:19;10.40;;;6.83;;
2009;SDS011;1008;47.404;8.502;2023-05-14T00:55:47;10.57;;;6.40;;
2009;SDS011;1008;47.404;8.502;2023-05-14T00:58:15;9.10;;;6.47;;
2009;SDS011;1008;47.404;8.502;2023-05-14T01:00:44;9.63;;;6.47;;
2009;SDS011;1008;47.404;8.502;2023-05-14T01:03:10;10.50;;;6.43;;
2009;SDS011;1008;47.404;8.502;2023-05-14T01:05:41;11.27;;;6.93;;
2009;SDS011;1008;47.404;8.502;2023-05-14T01:08:15;9.43;;;6.47;;
2009;SDS011;1008;47.404;8.502;2023-05-14T01:10:49;8.63;;;6.70;;
2009;SDS011;1008;47.404;8.502;2023-05-14T01:13:20;8.40;;;6.03;;
2009;SDS011;1008;47.404;8.502;2023-05-14T01:15:59;9.23;;;6.93;;
2009;SDS011;1008;47.404;8.502;2023-05-14T01:18:27;9.20;;;6.23;;
2009;SDS011;1008;47.404;8.502;2023-05-14T01:20:58;8.77;;;5.93;;
2009;SDS011;1008;47.404;8.502;2023-05-14T01:23:26;7.73;;;5.80;;
2009;SDS011;1008;47.404;8.502;2023-05-14T01:25:52;9.40;;;6.40;;
2009;SDS011;1008;47.404;8.502;2023-05-14T01:28:21;8.90;;;6.53;;
2009;SDS011;1008;47.404;8.502;2023-05-14T01:30:54;9.17;;;6.30;;
2009;SDS011;1008;47.404;8.502;2023-05-14T01:33:24;9.50;;;6.70;;
2009;SDS011;1008;47.404;8.502;2023-05-14T01:35:52;9.13;;;6.40;;
2009;SDS011;1008;47.404;8.502;2023-05-14T01:38:19;9.70;;;6.80;;
2009;SDS011;1008;47.404;8.502;2023-05-14T01:40:49;10.37;;;6.43;;
2009;SDS011;1008;47.404;8.502;2023-05-14T01:43:16;9.83;;;6.90;;
2009;SDS011;1008;47.404;8.502;2023-05-14T01:45:44;9.67;;;6.80;;
2009;SDS011;1008;47.404;8.502;2023-05-14T01:48:11;9.60;;;6.50;;
2009;SDS011;1008;47.404;8.502;2023-05-14T01:50:37;8.90;;;5.70;;
2009;SDS011;1008;47.404;8.502;2023-05-14T01:53:04;8.77;;;6.33;;
2009;SDS011;1008;47.404;8.502;2023-05-14T01:55:31;9.63;;;6.40;;
2009;SDS011;1008;47.404;8.502;2023-05-14T01:57:59;10.80;;;6.57;;
2009;SDS011;1008;47.404;8.502;2023-05-14T02:00:26;9.23;;;6.17;;
2009;SDS011;1008;47.404;8.502;2023-05-14T02:02:53;10.10;;;6.27;;
2009;SDS011;1008;47.404;8.502;2023-05-14T02:05:20;8.43;;;6.50;;
2009;SDS011;1008;47.404;8.502;2023-05-14T02:07:46;11.20;;;6.90;;
2009;SDS011;1008;47.404;8.502;2023-05-14T02:10:13;9.40;;;6.40;;
2009;SDS011;1008;47.404;8.502;2023-05-14T02:12:40;10.40;;;7.27;;
2009;SDS011;1008;47.404;8.502;2023-05-14T02:15:08;8.73;;;5.90;;
2009;SDS011;1008;47.404;8.502;2023-05-14T02:17:35;9.10;;;6.50;;
2009;SDS011;1008;47.404;8.502;2023-05-14T02:20:02;9.63;;;6.60;;
2009;SDS011;1008;47.404;8.502;2023-05-14T02:22:30;11.43;;;6.77;;
2009;SDS011;1008;47.404;8.502;2023-05-14T02:24:56;12.30;;;6.80;;
2009;SDS011;1008;47.404;8.502;2023-05-14T02:27:23;9.90;;;7.00;;
2009;SDS011;1008;47.404;8.502;2023-05-14T02:29:50;10.10;;;6.63;;
2009;SDS011;1008;47.404;8.502;2023-05-14T02:32:19;12.47;;;6.83;;
2009;SDS011;1008;47.404;8.502;2023-05-14T02:34:45;10.07;;;6.40;;
2009;SDS011;1008;47.404;8.502;2023-05-14T02:37:12;13.50;;;7.50;;
2009;SDS011;1008;47.404;8.502;2023-05-14T02:39:39;9.97;;;6.70;;
2009;SDS011;1008;47.404;8.502;2023-05-14T02:42:06;10.07;;;6.73;;
2009;SDS011;1008;47.404;8.502;2023-05-14T02:44:32;10.20;;;6.93;;
2009;SDS011;1008;47.404;8.502;2023-05-14T02:46:59;10.30;;;6.33;;
2009;SDS011;1008;47.404;8.502;2023-05-14T02:49:27;9.60;;;5.70;;
2009;SDS011;1008;47.404;8.502;2023-05-14T02:51:54;10.23;;;6.20;;
2009;SDS011;1008;47.404;8.502;2023-05-14T02:54:21;9.47;;;6.20;;
2009;SDS011;1008;47.404;8.502;2023-05-14T02:56:48;9.33;;;6.53;;
2009;SDS011;1008;47.404;8.502;2023-05-14T02:59:15;7.80;;;5.80;;
2009;SDS011;1008;47.404;8.502;2023-05-14T03:01:41;8.13;;;5.80;;
2009;SDS011;1008;47.404;8.502;2023-05-14T03:04:08;7.97;;;6.03;;
2009;SDS011;1008;47.404;8.502;2023-05-14T03:06:36;8.37;;;6.53;;
2009;SDS011;1008;47.404;8.502;2023-05-14T03:09:03;11.70;;;6.00;;
2009;SDS011;1008;47.404;8.502;2023-05-14T03:11:30;9.83;;;6.33;;
2009;SDS011;1008;47.404;8.502;2023-05-14T03:13:57;9.87;;;6.93;;
2009;SDS011;1008;47.404;8.502;2023-05-14T03:16:23;9.77;;;6.83;;
2009;SDS011;1008;47.404;8.502;2023-05-14T03:18:50;10.67;;;6.40;;
2009;SDS011;1008;47.404;8.502;2023-05-14T03:21:17;9.37;;;6.10;;
2009;SDS011;1008;47.404;8.502;2023-05-14T03:23:45;11.60;;;6.87;;
2009;SDS011;1008;47.404;8.502;2023-05-14T03:26:12;11.40;;;7.03;;
2009;SDS011;1008;47.404;8.502;2023-05-14T03:28:38;8.10;;;6.37;;
2009;SDS011;1008;47.404;8.502;2023-05-14T03:31:05;7.33;;;6.13;;
2009;SDS011;1008;47.404;8.502;2023-05-14T03:33:32;8.43;;;6.47;;
2009;SDS011;1008;47.404;8.502;2023-05-14T03:35:59;9.97;;;6.20;;
2009;SDS011;1008;47.404;8.502;2023-05-14T03:38:26;8.17;;;5.50;;
2009;SDS011;1008;47.404;8.502;2023-05-14T03:40:54;7.37;;;5.33;;
2009;SDS011;1008;47.404;8.502;2023-05-14T03:43:21;10.77;;;7.00;;
2009;SDS011;1008;47.404;8.502;2023-05-14T03:45:48;8.80;;;6.37;;
2009;SDS011;1008;47.404;8.502;2023-05-14T03:48:16;9.10;;;6.60;;
2009;SDS011;1008;47.404;8.502;2023-05-14T03:50:43;9.43;;;6.57;;
2009;SDS011;1008;47.404;8.502;2023-05-14T03:53:10;9.27;;;6.13;;
2009;SDS011;1008;47.404;8.502;2023-05-14T03:55:36;11.37;;;7.10;;
2009;SDS011;1008;47.404;8.502;2023-05-14T03:58:05;8.70;;;5.80;;
2009;SDS011;1008;47.404;8.502;2023-05-14T04:00:38;8.83;;;6.10;;
2009;SDS011;1008;47.404;8.502;2023-05-14T04:03:05;10.70;;;6.50;;
2009;SDS011;1008;47.404;8.502;2023-05-14T04:05:32;8.60;;;5.90;;
2009;SDS011;1008;47.404;8.502;2023-05-14T04:07:59;8.63;;;6.00;;
2009;SDS011;1008;47.404;8.502;2023-05-14T04:10:26;8.90;;;6.20;;
2009;SDS011;1008;47.404;8.502;2023-05-14T04:12:53;8.50;;;6.20;;
2009;SDS011;1008;47.404;8.502;2023-05-14T04:15:21;8.90;;;5.83;;
2009;SDS011;1008;47.404;8.502;2023-05-14T04:17:48;9.57;;;6.53;;
2009;SDS011;1008;47.404;8.502;2023-05-14T04:20:15;8.77;;;5.93;;
2009;SDS011;1008;47.404;8.502;2023-05-14T04:22:42;8.27;;;6.40;;
2009;SDS011;1008;47.404;8.502;2023-05-14T04:25:08;8.80;;;5.97;;
2009;SDS011;1008;47.404;8.502;2023-05-14T04:27:35;10.00;;;7.20;;
2009;SDS011;1008;47.404;8.502;2023-05-14T04:30:02;7.93;;;6.07;;
2009;SDS011;1008;47.404;8.502;2023-05-14T04:32:31;9.47;;;6.40;;
2009;SDS011;1008;47.404;8.502;2023-05-14T04:34:58;10.40;;;6.50;;
2009;SDS011;1008;47.404;8.502;2023-05-14T04:37:25;8.33;;;6.03;;
2009;SDS011;1008;47.404;8.502;2023-05-14T04:39:52;8.30;;;5.73;;
2009;SDS011;1008;47.404;8.502;2023-05-14T04:42:18;6.83;;;5.83;;
2009;SDS011;1008;47.404;8.502;2023-05-14T04:44:45;10.33;;;5.97;;
2009;SDS011;1008;47.404;8.502;2023-05-14T04:47:12;11.03;;;6.27;;
2009;SDS011;1008;47.404;8.502;2023-05-14T04:49:40;11.23;;;7.03;;
2009;SDS011;1008;47.404;8.502;2023-05-14T04:52:07;9.40;;;5.70;;
2009;SDS011;1008;47.404;8.502;2023-05-14T04:54:34;14.57;;;6.90;;
2009;SDS011;1008;47.404;8.502;2023-05-14T04:57:01;7.80;;;5.77;;
2009;SDS011;1008;47.404;8.502;2023-05-14T04:59:28;8.20;;;6.00;;
2009;SDS011;1008;47.404;8.502;2023-05-14T05:01:54;10.67;;;7.03;;
2009;SDS011;1008;47.404;8.502;2023-05-14T05:04:21;8.70;;;5.63;;
2009;SDS011;1008;47.404;8.502;2023-05-14T05:06:50;9.30;;;6.10;;
2009;SDS011;1008;47.404;8.502;2023-05-14T05:09:16;8.47;;;5.90;;
2009;SDS011;1008;47.404;8.502;2023-05-14T05:11:43;9.33;;;6.10;;
2009;SDS011;1008;47.404;8.502;2023-05-14T05:14:10;8.47;;;6.23;;
2009;SDS011;1008;47.404;8.502;2023-05-14T05:16:37;7.77;;;4.80;;
2009;SDS011;1008;47.404;8.502;2023-05-14T05:19:04;8.87;;;5.80;;
2009;SDS011;1008;47.404;8.502;2023-05-14T05:21:30;9.07;;;6.33;;
2009;SDS011;1008;47.404;8.502;2023-05-14T05:23:58;7.87;;;5.53;;
2009;SDS011;1008;47.404;8.502;2023-05-14T05:26:25;8.70;;;6.37;;
2009;SDS011;1008;47.404;8.502;2023-05-14T05:28:52;9.50;;;6.37;;
2009;SDS011;1008;47.404;8.502;2023-05-14T05:31:19;9.07;;;6.37;;
2009;SDS011;1008;47.404;8.502;2023-05-14T05:33:46;7.07;;;5.53;;
2009;SDS011;1008;47.404;8.502;2023-05-14T05:36:13;7.50;;;5.33;;
2009;SDS011;1008;47.404;8.502;2023-05-14T05:38:39;5.87;;;5.00;;
2009;SDS011;1008;47.404;8.502;2023-05-14T05:41:08;8.80;;;5.30;;
2009;SDS011;1008;47.404;8.502;2023-05-14T05:43:34;7.63;;;5.43;;
2009;SDS011;1008;47.404;8.502;2023-05-14T05:46:01;9.33;;;5.83;;
2009;SDS011;1008;47.404;8.502;2023-05-14T05:48:28;7.60;;;5.47;;
2009;SDS011;1008;47.404;8.502;2023-05-14T05:50:55;7.80;;;5.37;;
2009;SDS011;1008;47.404;8.502;2023-05-14T05:53:21;8.40;;;5.30;;
2009;SDS011;1008;47.404;8.502;2023-05-14T05:55:48;8.20;;;6.07;;
2009;SDS011;1008;47.404;8.502;2023-05-14T05:58:17;8.50;;;5.73;;
2009;SDS011;1008;47.404;8.502;2023-05-14T06:00:44;7.93;;;5.70;;
2009;SDS011;1008;47.404;8.502;2023-05-14T06:03:12;8.20;;;5.37;;
2009;SDS011;1008;47.404;8.502;2023-05-14T06:05:39;7.27;;;5.43;;
2009;SDS011;1008;47.404;8.502;2023-05-14T06:08:05;9.40;;;6.30;;
2009;SDS011;1008;47.404;8.502;2023-05-14T06:10:32;9.30;;;5.67;;
2009;SDS011;1008;47.404;8.502;2023-05-14T06:13:00;8.17;;;5.77;;
2009;SDS011;1008;47.404;8.502;2023-05-14T06:15:28;10.33;;;6.33;;
2009;SDS011;1008;47.404;8.502;2023-05-14T06:17:55;8.67;;;5.70;;
2009;SDS011;1008;47.404;8.502;2023-05-14T06:20:22;8.40;;;5.80;;
2009;SDS011;1008;47.404;8.502;2023-05-14T06:22:48;8.83;;;6.77;;
2009;SDS011;1008;47.404;8.502;2023-05-14T06:25:15;8.70;;;6.03;;
2009;SDS011;1008;47.404;8.502;2023-05-14T06:27:42;10.17;;;6.00;;
2009;SDS011;1008;47.404;8.502;2023-05-14T06:30:10;9.50;;;5.90;;
2009;SDS011;1008;47.404;8.502;2023-05-14T06:32:38;10.03;;;5.30;;
2009;SDS011;1008;47.404;8.502;2023-05-14T06:35:06;6.80;;;5.80;;
2009;SDS011;1008;47.404;8.502;2023-05-14T06:37:33;8.20;;;5.93;;
2009;SDS011;1008;47.404;8.502;2023-05-14T06:40:00;8.23;;;5.83;;
2009;SDS011;1008;47.404;8.502;2023-05-14T06:42:27;10.20;;;5.73;;
2009;SDS011;1008;47.404;8.502;2023-05-14T06:44:54;9.33;;;6.50;;
2009;SDS011;1008;47.404;8.502;2023-05-14T06:47:21;7.90;;;5.90;;
2009;SDS011;1008;47.404;8.502;2023-05-14T06:49:49;10.47;;;6.73;;
2009;SDS011;1008;47.404;8.502;2023-05-14T06:52:16;9.67;;;6.47;;
2009;SDS011;1008;47.404;8.502;2023-05-14T06:54:42;11.17;;;6.53;;
2009;SDS011;1008;47.404;8.502;2023-05-14T06:57:09;8.80;;;6.40;;
2009;SDS011;1008;47.404;8.502;2023-05-14T06:59:36;10.63;;;7.10;;
2009;SDS011;1008;47.404;8.502;2023-05-14T07:02:03;9.03;;;6.33;;
2009;SDS011;1008;47.404;8.502;2023-05-14T07:04:29;10.07;;;6.67;;
2009;SDS011;1008;47.404;8.502;2023-05-14T07:06:58;13.03;;;7.30;;
2009;SDS011;1008;47.404;8.502;2023-05-14T07:09:25;10.90;;;6.67;;
2009;SDS011;1008;47.404;8.502;2023-05-14T07:11:51;10.50;;;6.80;;
2009;SDS011;1008;47.404;8.502;2023-05-14T07:14:18;9.87;;;6.93;;
2009;SDS011;1008;47.404;8.502;2023-05-14T07:16:45;8.50;;;6.10;;
2009;SDS011;1008;47.404;8.502;2023-05-14T07:19:12;9.90;;;6.90;;
2009;SDS011;1008;47.404;8.502;2023-05-14T07:21:38;10.73;;;7.10;;
2009;SDS011;1008;47.404;8.502;2023-05-14T07:24:07;10.53;;;6.73;;
2009;SDS011;1008;47.404;8.502;2023-05-14T07:26:33;10.80;;;7.50;;
2009;SDS011;1008;47.404;8.502;2023-05-14T07:29:00;11.47;;;5.80;;
2009;SDS011;1008;47.404;8.502;2023-05-14T07:31:27;13.27;;;7.07;;
2009;SDS011;1008;47.404;8.502;2023-05-14T07:33:54;11.20;;;7.27;;
2009;SDS011;1008;47.404;8.502;2023-05-14T07:36:20;10.30;;;7.33;;
2009;SDS011;1008;47.404;8.502;2023-05-14T07:38:47;10.33;;;6.67;;
2009;SDS011;1008;47.404;8.502;2023-05-14T07:41:15;11.43;;;7.37;;
2009;SDS011;1008;47.404;8.502;2023-05-14T07:43:42;9.57;;;6.47;;
2009;SDS011;1008;47.404;8.502;2023-05-14T07:46:09;10.07;;;6.40;;
2009;SDS011;1008;47.404;8.502;2023-05-14T07:48:36;11.70;;;7.00;;
2009;SDS011;1008;47.404;8.502;2023-05-14T07:51:02;11.00;;;6.53;;
2009;SDS011;1008;47.404;8.502;2023-05-14T07:53:29;10.10;;;5.93;;
2009;SDS011;1008;47.404;8.502;2023-05-14T07:55:56;7.40;;;5.40;;
2009;SDS011;1008;47.404;8.502;2023-05-14T07:58:25;8.70;;;5.63;;
2009;SDS011;1008;47.404;8.502;2023-05-14T08:00:52;9.50;;;6.60;;
2009;SDS011;1008;47.404;8.502;2023-05-14T08:03:20;8.70;;;6.17;;
2009;SDS011;1008;47.404;8.502;2023-05-14T08:05:47;8.83;;;6.17;;
2009;SDS011;1008;47.404;8.502;2023-05-14T08:08:14;10.07;;;5.73;;
2009;SDS011;1008;47.404;8.502;2023-05-14T08:10:41;8.03;;;5.70;;
2009;SDS011;1008;47.404;8.502;2023-05-14T08:13:07;10.07;;;6.50;;
2009;SDS011;1008;47.404;8.502;2023-05-14T08:15:36;10.00;;;5.40;;
2009;SDS011;1008;47.404;8.502;2023-05-14T08:18:03;9.63;;;5.83;;
2009;SDS011;1008;47.404;8.502;2023-05-14T08:20:29;7.77;;;5.47;;
2009;SDS011;1008;47.404;8.502;2023-05-14T08:22:56;10.80;;;6.50;;
2009;SDS011;1008;47.404;8.502;2023-05-14T08:25:23;12.83;;;7.47;;
2009;SDS011;1008;47.404;8.502;2023-05-14T08:27:50;10.70;;;6.50;;
2009;SDS011;1008;47.404;8.502;2023-05-14T08:30:18;9.97;;;6.03;;
2009;SDS011;1008;47.404;8.502;2023-05-14T08:32:46;9.57;;;6.07;;
2009;SDS011;1008;47.404;8.502;2023-05-14T08:35:13;8.57;;;6.03;;
2009;SDS011;1008;47.404;8.502;2023-05-14T08:37:40;8.70;;;6.00;;
2009;SDS011;1008;47.404;8.502;2023-05-14T08:40:08;11.00;;;6.47;;
2009;SDS011;1008;47.404;8.502;2023-05-14T08:42:35;8.57;;;5.43;;
2009;SDS011;1008;47.404;8.502;2023-05-14T08:45:08;9.90;;;6.00;;
2009;SDS011;1008;47.404;8.502;2023-05-14T08:47:40;8.87;;;6.20;;
2009;SDS011;1008;47.404;8.502;2023-05-14T08:50:10;11.40;;;5.50;;
2009;SDS011;1008;47.404;8.502;2023-05-14T08:52:37;5.97;;;4.90;;
2009;SDS011;1008;47.404;8.502;2023-05-14T08:55:05;8.50;;;5.60;;
2009;SDS011;1008;47.404;8.502;2023-05-14T08:57:32;7.40;;;5.20;;
2009;SDS011;1008;47.404;8.502;2023-05-14T08:59:59;7.37;;;5.10;;
2009;SDS011;1008;47.404;8.502;2023-05-14T09:02:30;7.83;;;5.53;;
2009;SDS011;1008;47.404;8.502;2023-05-14T09:04:58;8.43;;;5.60;;
2009;SDS011;1008;47.404;8.502;2023-05-14T09:07:28;6.03;;;4.60;;
2009;SDS011;1008;47.404;8.502;2023-05-14T09:09:54;9.80;;;5.87;;
2009;SDS011;1008;47.404;8.502;2023-05-14T09:12:21;10.70;;;6.90;;
2009;SDS011;1008;47.404;8.502;2023-05-14T09:14:48;8.90;;;5.13;;
2009;SDS011;1008;47.404;8.502;2023-05-14T09:17:16;12.13;;;7.20;;
2009;SDS011;1008;47.404;8.502;2023-05-14T09:19:44;6.70;;;4.60;;
2009;SDS011;1008;47.404;8.502;2023-05-14T09:22:13;5.83;;;4.20;;
2009;SDS011;1008;47.404;8.502;2023-05-14T09:24:42;5.60;;;3.83;;
2009;SDS011;1008;47.404;8.502;2023-05-14T09:27:14;9.20;;;5.50;;
2009;SDS011;1008;47.404;8.502;2023-05-14T09:29:46;5.37;;;4.30;;
2009;SDS011;1008;47.404;8.502;2023-05-14T09:32:13;6.73;;;4.30;;
2009;SDS011;1008;47.404;8.502;2023-05-14T09:34:40;4.93;;;3.40;;
2009;SDS011;1008;47.404;8.502;2023-05-14T09:37:07;5.63;;;4.33;;
2009;SDS011;1008;47.404;8.502;2023-05-14T09:39:34;5.70;;;4.00;;
2009;SDS011;1008;47.404;8.502;2023-05-14T09:42:04;9.87;;;5.73;;
2009;SDS011;1008;47.404;8.502;2023-05-14T09:44:31;11.90;;;5.40;;
2009;SDS011;1008;47.404;8.502;2023-05-14T09:47:00;5.83;;;4.03;;
2009;SDS011;1008;47.404;8.502;2023-05-14T09:49:27;6.27;;;4.10;;
2009;SDS011;1008;47.404;8.502;2023-05-14T09:51:53;6.23;;;4.20;;
2009;SDS011;1008;47.404;8.502;2023-05-14T09:54:21;6.23;;;4.47;;
2009;SDS011;1008;47.404;8.502;2023-05-14T09:56:50;6.23;;;4.83;;
2009;SDS011;1008;47.404;8.502;2023-05-14T09:59:18;7.23;;;4.90;;
2009;SDS011;1008;47.404;8.502;2023-05-14T10:01:45;6.93;;;4.83;;
2009;SDS011;1008;47.404;8.502;2023-05-14T10:04:12;8.10;;;4.93;;
2009;SDS011;1008;47.404;8.502;2023-05-14T10:06:39;9.40;;;4.83;;
2009;SDS011;1008;47.404;8.502;2023-05-14T10:09:09;29.43;;;12.30;;
2009;SDS011;1008;47.404;8.502;2023-05-14T10:11:37;8.70;;;4.93;;
2009;SDS011;1008;47.404;8.502;2023-05-14T10:14:08;5.87;;;3.60;;
2009;SDS011;1008;47.404;8.502;2023-05-14T10:16:45;6.13;;;3.70;;
2009;SDS011;1008;47.404;8.502;2023-05-14T10:19:14;4.83;;;3.43;;
2009;SDS011;1008;47.404;8.502;2023-05-14T10:21:44;4.30;;;3.33;;
2009;SDS011;1008;47.404;8.502;2023-05-14T10:24:18;4.40;;;3.37;;
2009;SDS011;1008;47.404;8.502;2023-05-14T10:26:45;6.17;;;3.67;;
2009;SDS011;1008;47.404;8.502;2023-05-14T10:29:12;3.40;;;2.53;;
2009;SDS011;1008;47.404;8.502;2023-05-14T10:31:47;3.80;;;2.83;;
2009;SDS011;1008;47.404;8.502;2023-05-14T10:34:29;3.87;;;3.10;;
2009;SDS011;1008;47.404;8.502;2023-05-14T10:36:57;12.07;;;5.43;;
2009;SDS011;1008;47.404;8.502;2023-05-14T10:39:38;4.90;;;3.30;;
2009;SDS011;1008;47.404;8.502;2023-05-14T10:42:09;4.30;;;3.00;;
2009;SDS011;1008;47.404;8.502;2023-05-14T10:44:39;4.70;;;2.90;;
2009;SDS011;1008;47.404;8.502;2023-05-14T10:47:13;3.63;;;2.60;;
2009;SDS011;1008;47.404;8.502;2023-05-14T10:49:40;3.13;;;2.40;;
2009;SDS011;1008;47.404;8.502;2023-05-14T10:52:08;3.87;;;2.90;;
2009;SDS011;1008;47.404;8.502;2023-05-14T10:54:36;3.63;;;2.70;;
2009;SDS011;1008;47.404;8.502;2023-05-14T10:57:07;5.77;;;3.50;;
2009;SDS011;1008;47.404;8.502;2023-05-14T10:59:36;5.60;;;3.80;;
2009;SDS011;1008;47.404;8.502;2023-05-14T11:02:16;4.73;;;3.13;;
2009;SDS011;1008;47.404;8.502;2023-05-14T11:04:50;5.40;;;3.70;;
2009;SDS011;1008;47.404;8.502;2023-05-14T11:07:19;5.17;;;3.30;;
2009;SDS011;1008;47.404;8.502;2023-05-14T11:09:49;4.97;;;3.63;;
2009;SDS011;1008;47.404;8.502;2023-05-14T11:12:16;4.10;;;3.30;;
2009;SDS011;1008;47.404;8.502;2023-05-14T11:14:43;4.33;;;3.23;;
2009;SDS011;1008;47.404;8.502;2023-05-14T11:17:11;3.80;;;3.40;;
2009;SDS011;1008;47.404;8.502;2023-05-14T11:19:39;7.60;;;3.87;;
2009;SDS011;1008;47.404;8.502;2023-05-14T11:22:08;3.47;;;2.70;;
2009;SDS011;1008;47.404;8.502;2023-05-14T11:24:37;4.03;;;3.00;;
2009;SDS011;1008;47.404;8.502;2023-05-14T11:27:04;5.13;;;3.30;;
2009;SDS011;1008;47.404;8.502;2023-05-14T11:29:32;4.73;;;3.10;;
2009;SDS011;1008;47.404;8.502;2023-05-14T11:31:59;7.50;;;4.53;;
2009;SDS011;1008;47.404;8.502;2023-05-14T11:34:27;5.43;;;3.93;;
2009;SDS011;1008;47.404;8.502;2023-05-14T11:36:55;7.30;;;4.40;;
2009;SDS011;1008;47.404;8.502;2023-05-14T11:39:22;8.40;;;4.97;;
2009;SDS011;1008;47.404;8.502;2023-05-14T11:41:48;7.97;;;4.67;;
2009;SDS011;1008;47.404;8.502;2023-05-14T11:44:15;7.17;;;5.00;;
2009;SDS011;1008;47.404;8.502;2023-05-14T11:46:52;29.30;;;12.20;;
2009;SDS011;1008;47.404;8.502;2023-05-14T11:49:20;8.40;;;4.80;;
2009;SDS011;1008;47.404;8.502;2023-05-14T11:51:47;10.07;;;5.80;;
2009;SDS011;1008;47.404;8.502;2023-05-14T11:54:15;5.37;;;4.30;;
2009;SDS011;1008;47.404;8.502;2023-05-14T11:56:41;6.43;;;4.33;;
2009;SDS011;1008;47.404;8.502;2023-05-14T11:59:09;7.47;;;4.97;;
2009;SDS011;1008;47.404;8.502;2023-05-14T12:01:37;7.30;;;5.03;;
2009;SDS011;1008;47.404;8.502;2023-05-14T12:04:04;28.03;;;13.30;;
2009;SDS011;1008;47.404;8.502;2023-05-14T12:06:31;5.83;;;4.10;;
2009;SDS011;1008;47.404;8.502;2023-05-14T12:08:58;10.50;;;5.47;;
2009;SDS011;1008;47.404;8.502;2023-05-14T12:11:30;7.40;;;4.70;;
2009;SDS011;1008;47.404;8.502;2023-05-14T12:13:57;3.30;;;2.67;;
2009;SDS011;1008;47.404;8.502;2023-05-14T12:16:28;5.13;;;1.93;;
2009;SDS011;1008;47.404;8.502;2023-05-14T12:18:58;2.53;;;2.10;;
2009;SDS011;1008;47.404;8.502;2023-05-14T12:21:26;4.43;;;3.43;;
2009;SDS011;1008;47.404;8.502;2023-05-14T12:23:55;3.13;;;2.50;;
2009;SDS011;1008;47.404;8.502;2023-05-14T12:26:24;4.40;;;3.27;;
2009;SDS011;1008;47.404;8.502;2023-05-14T12:28:57;4.23;;;3.00;;
2009;SDS011;1008;47.404;8.502;2023-05-14T12:31:28;4.37;;;2.90;;
2009;SDS011;1008;47.404;8.502;2023-05-14T12:33:55;5.67;;;3.60;;
2009;SDS011;1008;47.404;8.502;2023-05-14T12:36:22;6.83;;;4.10;;
2009;SDS011;1008;47.404;8.502;2023-05-14T12:38:49;7.87;;;4.50;;
2009;SDS011;1008;47.404;8.502;2023-05-14T12:41:21;6.70;;;4.30;;
2009;SDS011;1008;47.404;8.502;2023-05-14T12:43:48;7.70;;;5.00;;
2009;SDS011;1008;47.404;8.502;2023-05-14T12:46:16;5.10;;;3.57;;
2009;SDS011;1008;47.404;8.502;2023-05-14T12:48:43;4.97;;;3.93;;
2009;SDS011;1008;47.404;8.502;2023-05-14T12:51:10;7.87;;;4.33;;
2009;SDS011;1008;47.404;8.502;2023-05-14T12:53:37;7.20;;;4.33;;
2009;SDS011;1008;47.404;8.502;2023-05-14T12:56:04;6.90;;;5.00;;
2009;SDS011;1008;47.404;8.502;2023-05-14T12:58:31;5.40;;;3.77;;
2009;SDS011;1008;47.404;8.502;2023-05-14T13:00:58;7.87;;;5.13;;
2009;SDS011;1008;47.404;8.502;2023-05-14T13:03:27;8.13;;;5.10;;
2009;SDS011;1008;47.404;8.502;2023-05-14T13:05:54;6.90;;;4.87;;
2009;SDS011;1008;47.404;8.502;2023-05-14T13:08:21;6.03;;;4.20;;
2009;SDS011;1008;47.404;8.502;2023-05-14T13:10:49;8.80;;;4.40;;
2009;SDS011;1008;47.404;8.502;2023-05-14T13:13:16;4.90;;;3.60;;
2009;SDS011;1008;47.404;8.502;2023-05-14T13:15:42;4.37;;;3.57;;
2009;SDS011;1008;47.404;8.502;2023-05-14T13:18:10;4.77;;;3.80;;
2009;SDS011;1008;47.404;8.502;2023-05-14T13:20:39;6.67;;;4.13;;
2009;SDS011;1008;47.404;8.502;2023-05-14T13:23:05;7.17;;;4.47;;
2009;SDS011;1008;47.404;8.502;2023-05-14T13:25:32;5.97;;;3.50;;
2009;SDS011;1008;47.404;8.502;2023-05-14T13:28:00;5.83;;;3.20;;
2009;SDS011;1008;47.404;8.502;2023-05-14T13:30:27;3.93;;;3.30;;
2009;SDS011;1008;47.404;8.502;2023-05-14T13:32:54;6.23;;;4.40;;
2009;SDS011;1008;47.404;8.502;2023-05-14T13:35:20;5.33;;;3.60;;
2009;SDS011;1008;47.404;8.502;2023-05-14T13:37:48;5.73;;;3.40;;
2009;SDS011;1008;47.404;8.502;2023-05-14T13:40:15;5.07;;;3.50;;
2009;SDS011;1008;47.404;8.502;2023-05-14T13:42:42;3.90;;;3.00;;
2009;SDS011;1008;47.404;8.502;2023-05-14T13:45:09;4.70;;;3.47;;
2009;SDS011;1008;47.404;8.502;2023-05-14T13:47:37;4.20;;;3.03;;
2009;SDS011;1008;47.404;8.502;2023-05-14T13:50:04;6.30;;;3.87;;
2009;SDS011;1008;47.404;8.502;2023-05-14T13:52:31;4.23;;;3.10;;
2009;SDS011;1008;47.404;8.502;2023-05-14T13:54:59;5.87;;;3.80;;
2009;SDS011;1008;47.404;8.502;2023-05-14T13:57:26;3.50;;;2.67;;
2009;SDS011;1008;47.404;8.502;2023-05-14T13:59:53;3.67;;;2.57;;
2009;SDS011;1008;47.404;8.502;2023-05-14T14:02:20;2.17;;;1.83;;
2009;SDS011;1008;47.404;8.502;2023-05-14T14:04:46;2.27;;;1.90;;
2009;SDS011;1008;47.404;8.502;2023-05-14T14:07:13;6.60;;;1.93;;
2009;SDS011;1008;47.404;8.502;2023-05-14T14:09:40;2.87;;;1.63;;
2009;SDS011;1008;47.404;8.502;2023-05-14T14:12:09;2.90;;;1.90;;
2009;SDS011;1008;47.404;8.502;2023-05-14T14:14:35;1.63;;;1.40;;
2009;SDS011;1008;47.404;8.502;2023-05-14T14:17:02;1.77;;;1.63;;
2009;SDS011;1008;47.404;8.502;2023-05-14T14:19:29;2.63;;;1.80;;
2009;SDS011;1008;47.404;8.502;2023-05-14T14:21:56;1.70;;;1.47;;
2009;SDS011;1008;47.404;8.502;2023-05-14T14:24:22;1.70;;;1.53;;
2009;SDS011;1008;47.404;8.502;2023-05-14T14:26:49;1.83;;;1.50;;
2009;SDS011;1008;47.404;8.502;2023-05-14T14:29:17;2.70;;;1.70;;
2009;SDS011;1008;47.404;8.502;2023-05-14T14:31:45;2.33;;;1.60;;
2009;SDS011;1008;47.404;8.502;2023-05-14T14:34:12;2.50;;;1.90;;
2009;SDS011;1008;47.404;8.502;2023-05-14T14:36:39;2.70;;;1.73;;
2009;SDS011;1008;47.404;8.502;2023-05-14T14:39:06;2.20;;;1.90;;
2009;SDS011;1008;47.404;8.502;2023-05-14T14:41:32;2.27;;;2.03;;
2009;SDS011;1008;47.404;8.502;2023-05-14T14:43:59;1.90;;;1.63;;
2009;SDS011;1008;47.404;8.502;2023-05-14T14:46:28;2.73;;;1.90;;
2009;SDS011;1008;47.404;8.502;2023-05-14T14:48:55;3.50;;;2.17;;
2009;SDS011;1008;47.404;8.502;2023-05-14T14:51:22;2.60;;;2.10;;
2009;SDS011;1008;47.404;8.502;2023-05-14T14:53:48;2.23;;;2.00;;
2009;SDS011;1008;47.404;8.502;2023-05-14T14:56:15;3.00;;;1.80;;
2009;SDS011;1008;47.404;8.502;2023-05-14T14:58:42;2.90;;;1.80;;
2009;SDS011;1008;47.404;8.502;2023-05-14T15:01:09;2.60;;;1.87;;
2009;SDS011;1008;47.404;8.502;2023-05-14T15:03:37;3.97;;;2.00;;
2009;SDS011;1008;47.404;8.502;2023-05-14T15:06:05;2.40;;;1.90;;
2009;SDS011;1008;47.404;8.502;2023-05-14T15:08:32;3.00;;;2.00;;
2009;SDS011;1008;47.404;8.502;2023-05-14T15:10:59;3.27;;;2.13;;
2009;SDS011;1008;47.404;8.502;2023-05-14T15:13:26;2.47;;;1.93;;
2009;SDS011;1008;47.404;8.502;2023-05-14T15:15:53;2.83;;;2.00;;